Time;durP1;ratioP1;P1;durP2;ratioP2;P2;SDS_P1;SDS_P2;PMS_P1;PMS_P2;Temp;Humidity;BMP_temperature;BMP_pressure;BME280_temperature;BME280_humidity;BME280_pressure;Samples;Min_cycle;Max_cycle;Signal;HPM_P1;HPM_P2
2021/11/02 00:00:22;;;;;;;6.25;2.47;;;17.20;99.90;;;;;;5092284;28;20490;-76
2021/11/02 00:02:48;;;;;;;7.53;3.28;;;17.20;99.90;;;;;;5083547;28;20016;-80
2021/11/02 00:05:14;;;;;;;8.00;3.03;;;17.10;99.90;;;;;;5092071;28;20020;-73
2021/11/02 00:07:40;;;;;;;7.97;3.10;;;17.10;99.90;;;;;;5091467;28;20018;-78
2021/11/02 00:10:08;;;;;;;6.65;2.63;;;17.10;99.90;;;;;;5090199;28;20513;-82
2021/11/02 00:12:34;;;;;;;7.18;2.80;;;17.10;99.90;;;;;;5091957;28;20077;-76
2021/11/02 00:15:00;;;;;;;5.47;2.22;;;17.10;99.90;;;;;;5092416;28;20024;-78
2021/11/02 00:17:28;;;;;;;6.90;2.35;;;17.10;99.90;;;;;;5092186;28;20024;-75
2021/11/02 00:19:58;;;;;;;6.13;2.50;;;17.10;99.90;;;;;;5092338;28;20111;-74
2021/11/02 00:22:26;;;;;;;6.63;1.88;;;17.00;99.90;;;;;;5091863;28;20467;-72
2021/11/02 00:27:27;;;;;;;6.20;2.45;;;17.10;99.90;;;;;;5091813;28;20016;-73
2021/11/02 00:29:53;;;;;;;5.70;2.08;;;17.10;99.90;;;;;;5092135;28;20028;-67
2021/11/02 00:32:19;;;;;;;7.80;2.42;;;17.10;99.90;;;;;;5090233;28;20028;-77
2021/11/02 00:34:44;;;;;;;7.60;2.30;;;17.10;99.90;;;;;;5090394;28;20023;-75
2021/11/02 00:37:10;;;;;;;6.03;2.50;;;17.10;99.90;;;;;;5089921;28;20047;-71
2021/11/02 00:39:36;;;;;;;6.38;2.40;;;17.10;99.90;;;;;;5091202;28;20055;-71
2021/11/02 00:42:02;;;;;;;6.13;2.42;;;17.10;99.90;;;;;;5091853;28;20032;-70
2021/11/02 00:44:28;;;;;;;5.00;2.28;;;17.00;99.90;;;;;;5091468;28;20016;-71
2021/11/02 00:46:56;;;;;;;6.50;2.30;;;17.00;99.90;;;;;;5089990;28;20024;-71
2021/11/02 00:49:24;;;;;;;3.78;1.95;;;17.00;99.90;;;;;;5089995;28;20028;-72
2021/11/02 00:51:50;;;;;;;5.93;2.10;;;17.00;99.90;;;;;;5090707;28;20526;-71
2021/11/02 00:54:17;;;;;;;7.28;2.17;;;17.00;99.90;;;;;;5090502;28;20016;-68
2021/11/02 00:56:43;;;;;;;7.13;2.55;;;17.00;99.90;;;;;;5091228;28;20411;-76
2021/11/02 00:59:09;;;;;;;7.13;1.98;;;16.90;99.90;;;;;;5090708;28;20089;-79
2021/11/02 01:01:37;;;;;;;5.10;2.03;;;17.00;99.90;;;;;;5091070;28;20016;-78
2021/11/02 01:04:05;;;;;;;4.63;2.13;;;17.00;99.90;;;;;;5091492;28;20032;-80
2021/11/02 01:06:35;;;;;;;6.95;2.40;;;16.90;99.90;;;;;;5091248;28;20026;-80
2021/11/02 01:09:02;;;;;;;2.95;1.63;;;17.00;99.90;;;;;;5090126;28;20368;-77
2021/11/02 01:11:28;;;;;;;4.60;2.00;;;16.90;99.90;;;;;;5091291;28;20085;-78
2021/11/02 01:13:54;;;;;;;4.53;1.52;;;17.00;99.90;;;;;;5091455;28;20020;-75
2021/11/02 01:16:24;;;;;;;6.95;2.05;;;17.00;99.90;;;;;;5091178;28;20028;-77
2021/11/02 01:18:51;;;;;;;5.15;1.85;;;17.00;99.90;;;;;;5091369;28;20519;-79
2021/11/02 01:21:17;;;;;;;5.05;2.22;;;17.00;99.90;;;;;;5091096;28;20032;-77
2021/11/02 01:23:43;;;;;;;4.88;2.25;;;17.00;99.90;;;;;;5091683;28;20036;-73
2021/11/02 01:26:08;;;;;;;3.45;1.70;;;17.00;99.90;;;;;;5091318;28;20032;-77
2021/11/02 01:28:34;;;;;;;4.47;2.08;;;17.00;99.90;;;;;;5091136;28;20380;-75
2021/11/02 01:30:59;;;;;;;5.07;1.63;;;17.00;99.90;;;;;;5091273;28;20162;-77
2021/11/02 01:33:25;;;;;;;4.70;1.88;;;17.10;99.90;;;;;;5090991;28;20073;-76
2021/11/02 01:35:51;;;;;;;3.55;1.85;;;17.00;99.90;;;;;;5091590;28;20073;-76
2021/11/02 01:38:20;;;;;;;3.45;1.67;;;17.10;99.90;;;;;;5091073;28;20433;-75
2021/11/02 01:40:46;;;;;;;5.00;1.88;;;17.10;99.90;;;;;;5091405;28;20077;-73
2021/11/02 01:43:14;;;;;;;6.47;2.00;;;17.10;99.90;;;;;;5091474;28;20032;-73
2021/11/02 01:45:40;;;;;;;5.00;2.10;;;17.10;99.90;;;;;;5090979;28;20024;-80
2021/11/02 01:48:06;;;;;;;6.15;1.90;;;17.00;99.90;;;;;;5089976;28;20199;-80
2021/11/02 01:50:32;;;;;;;3.65;1.83;;;17.00;99.90;;;;;;5090870;28;20032;-80
2021/11/02 01:52:59;;;;;;;4.10;1.85;;;17.00;99.90;;;;;;5091262;28;20073;-75
2021/11/02 01:55:24;;;;;;;4.28;2.00;;;17.00;99.90;;;;;;5091053;28;20035;-79
2021/11/02 01:57:50;;;;;;;6.47;2.13;;;17.10;99.90;;;;;;5091850;28;20028;-74
2021/11/02 02:00:18;;;;;;;4.28;1.60;;;17.10;99.90;;;;;;5094793;28;20485;-69
2021/11/02 02:02:47;;;;;;;3.45;1.80;;;17.10;99.90;;;;;;5095065;28;20070;-78
2021/11/02 02:05:15;;;;;;;5.97;2.17;;;17.10;99.90;;;;;;5095145;28;20024;-74
2021/11/02 02:07:44;;;;;;;3.75;1.85;;;17.10;99.90;;;;;;5095035;28;20023;-75
2021/11/02 02:10:32;;;;;;;3.88;1.65;;;17.10;99.90;;;;;;5094680;28;20032;-76
2021/11/02 02:13:28;;;;;;;4.25;1.83;;;17.10;99.90;;;;;;5094756;28;20016;-77
2021/11/02 02:16:00;;;;;;;3.78;1.50;;;17.10;99.90;;;;;;5094488;28;20391;-75
2021/11/02 02:18:39;;;;;;;4.53;1.58;;;17.10;99.90;;;;;;5094390;28;20380;-75
2021/11/02 02:21:08;;;;;;;3.95;1.45;;;17.10;99.90;;;;;;5094578;28;20020;-75
2021/11/02 02:24:05;;;;;;;3.92;1.45;;;17.10;99.90;;;;;;5094170;28;20472;-76
2021/11/02 02:26:52;;;;;;;3.05;1.25;;;17.10;99.90;;;;;;5094052;28;20410;-77
2021/11/02 02:29:20;;;;;;;3.47;1.50;;;17.10;99.90;;;;;;5094112;28;20472;-75
2021/11/02 02:31:47;;;;;;;4.10;1.65;;;17.10;99.90;;;;;;5094511;28;20115;-70
2021/11/02 02:34:15;;;;;;;2.85;1.50;;;17.10;99.90;;;;;;5093233;28;20028;-70
2021/11/02 02:36:43;;;;;;;2.72;1.42;;;17.10;99.90;;;;;;5094623;28;20028;-76
2021/11/02 02:39:10;;;;;;;3.72;1.65;;;17.20;99.90;;;;;;5094212;28;20109;-70
2021/11/02 02:41:38;;;;;;;3.13;1.80;;;17.20;99.90;;;;;;5093992;28;20063;-78
2021/11/02 02:44:05;;;;;;;4.13;1.60;;;17.20;99.90;;;;;;5094251;28;20032;-74
2021/11/02 02:46:31;;;;;;;3.47;1.80;;;17.20;99.90;;;;;;5093806;28;20494;-77
2021/11/02 02:48:57;;;;;;;3.63;1.30;;;17.20;99.90;;;;;;5093972;28;20081;-73
2021/11/02 02:51:24;;;;;;;3.78;1.63;;;17.30;99.90;;;;;;5093820;28;20169;-72
2021/11/02 02:53:52;;;;;;;3.45;1.70;;;17.30;99.90;;;;;;5093986;28;20057;-69
2021/11/02 02:56:18;;;;;;;5.13;1.77;;;17.30;99.90;;;;;;5093609;28;20477;-69
2021/11/02 02:58:50;;;;;;;3.15;1.33;;;17.30;99.90;;;;;;5093882;28;20107;-74
2021/11/02 03:01:17;;;;;;;3.45;1.65;;;17.30;99.90;;;;;;5093771;28;20024;-72
2021/11/02 03:03:50;;;;;;;3.33;1.80;;;17.30;99.90;;;;;;5094049;28;20035;-70
2021/11/02 03:06:19;;;;;;;3.63;1.67;;;17.30;99.90;;;;;;5093437;28;20023;-69
2021/11/02 03:08:45;;;;;;;4.80;1.80;;;17.30;99.90;;;;;;5093097;28;20032;-73
2021/11/02 03:11:12;;;;;;;3.13;1.45;;;17.40;99.90;;;;;;5093623;28;20400;-75
2021/11/02 03:13:43;;;;;;;2.15;1.48;;;17.40;99.90;;;;;;5093370;28;20103;-74
2021/11/02 03:16:13;;;;;;;3.63;1.67;;;17.40;99.90;;;;;;5093719;28;20112;-76
2021/11/02 03:19:11;;;;;;;2.95;1.40;;;17.40;99.90;;;;;;5092157;28;20107;-79
2021/11/02 03:54:44;;;;;;;4.22;1.80;;;17.70;99.90;;;;;;5091455;28;20081;-78
2021/11/02 03:57:23;;;;;;;7.70;1.42;;;17.70;99.90;;;;;;5092841;28;20035;-75
2021/11/02 05:49:22;;;;;;;2.67;1.25;;;18.20;99.90;;;;;;5095128;28;20035;-74
2021/11/02 05:59:47;;;;;;;2.92;1.27;;;18.30;99.90;;;;;;5095258;28;20058;-73
2021/11/02 06:29:03;;;;;;;2.47;1.08;;;18.30;99.90;;;;;;5094635;28;20066;-70
2021/11/02 06:31:33;;;;;;;3.72;1.00;;;18.30;99.90;;;;;;5094297;28;20028;-71
2021/11/02 06:39:23;;;;;;;3.40;1.10;;;18.20;99.90;;;;;;5094303;28;20062;-70
2021/11/02 06:50:16;;;;;;;4.22;0.90;;;18.10;99.90;;;;;;5093858;28;20024;-69
2021/11/02 06:52:52;;;;;;;1.88;0.85;;;18.10;99.90;;;;;;5091601;28;20039;-70
2021/11/02 07:10:55;;;;;;;2.03;0.95;;;18.10;99.90;;;;;;5094236;28;20031;-74
2021/11/02 07:17:57;;;;;;;4.00;0.82;;;17.90;99.90;;;;;;5093349;28;20038;-74
2021/11/02 08:47:02;;;;;;;1.67;0.75;;;17.30;99.90;;;;;;5092099;28;20165;-75
2021/11/02 08:49:29;;;;;;;1.52;0.80;;;17.20;99.90;;;;;;5090490;28;20032;-75
2021/11/02 08:51:57;;;;;;;2.65;0.88;;;17.20;99.90;;;;;;5091946;28;20111;-75
2021/11/02 08:54:24;;;;;;;1.45;0.70;;;17.20;99.90;;;;;;5091709;28;20028;-75
2021/11/02 08:56:54;;;;;;;2.35;0.73;;;17.20;99.90;;;;;;5092051;28;20034;-75
2021/11/02 08:59:20;;;;;;;1.50;0.77;;;17.20;99.90;;;;;;5091079;28;20539;-75
2021/11/02 09:01:52;;;;;;;2.10;0.77;;;17.20;99.90;;;;;;5091718;28;20102;-75
2021/11/02 09:04:19;;;;;;;2.00;0.80;;;17.20;99.90;;;;;;5090135;28;20379;-75
2021/11/02 09:06:49;;;;;;;2.83;1.38;;;17.20;99.90;;;;;;5091514;28;20392;-79
2021/11/02 09:09:17;;;;;;;3.17;1.60;;;17.10;99.90;;;;;;5091872;28;20031;-79
2021/11/02 09:11:44;;;;;;;4.38;1.65;;;17.00;99.90;;;;;;5091939;28;20115;-79
2021/11/02 09:14:12;;;;;;;4.18;1.77;;;16.90;99.90;;;;;;5091684;28;20353;-76
2021/11/02 09:16:39;;;;;;;4.07;2.00;;;16.80;99.90;;;;;;5091515;28;20040;-74
2021/11/02 09:19:06;;;;;;;4.90;2.08;;;16.70;99.90;;;;;;5091756;28;20122;-74
2021/11/02 09:21:32;;;;;;;3.22;1.60;;;16.60;99.90;;;;;;5091378;28;20536;-75
2021/11/02 09:24:01;;;;;;;2.78;1.63;;;16.50;99.90;;;;;;5091541;28;20016;-75
2021/11/02 09:26:28;;;;;;;2.17;1.15;;;16.60;99.90;;;;;;5091105;28;20024;-75
2021/11/02 09:28:55;;;;;;;2.80;1.13;;;16.70;99.90;;;;;;5090283;28;20024;-75
2021/11/02 09:31:24;;;;;;;3.33;1.23;;;16.80;99.90;;;;;;5091261;28;20452;-76
2021/11/02 09:33:50;;;;;;;2.40;1.05;;;16.80;99.90;;;;;;5091357;28;20038;-75
2021/11/02 09:36:22;;;;;;;2.90;0.80;;;16.80;99.90;;;;;;5090586;28;20110;-75
2021/11/02 09:39:01;;;;;;;1.85;0.90;;;16.90;99.90;;;;;;5087503;28;20024;-72
2021/11/02 09:42:02;;;;;;;1.60;0.70;;;16.90;99.90;;;;;;5089137;28;20069;-73
2021/11/02 09:44:52;;;;;;;2.67;0.95;;;17.00;99.90;;;;;;5082463;28;20035;-73
2021/11/02 09:47:50;;;;;;;1.40;0.73;;;17.00;99.90;;;;;;5089314;28;20020;-72
2021/11/02 09:50:34;;;;;;;1.67;0.90;;;17.00;99.90;;;;;;5090861;28;20028;-72
2021/11/02 09:53:11;;;;;;;1.52;0.75;;;17.10;99.90;;;;;;5089358;28;20031;-77
2021/11/02 09:56:14;;;;;;;1.65;0.80;;;17.10;99.90;;;;;;5090339;28;20043;-72
2021/11/02 09:59:09;;;;;;;2.03;0.60;;;17.10;99.90;;;;;;5086157;28;20061;-72
2021/11/02 10:02:03;;;;;;;3.15;1.00;;;17.20;99.90;;;;;;5070774;28;20383;-75
2021/11/02 10:05:00;;;;;;;3.40;0.88;;;17.20;99.90;;;;;;5070661;28;20104;-75
2021/11/02 10:08:00;;;;;;;1.55;0.63;;;17.30;99.90;;;;;;5096060;28;20448;-75
2021/11/02 10:10:38;;;;;;;2.33;0.93;;;17.30;99.90;;;;;;5090556;28;20025;-74
2021/11/02 10:13:28;;;;;;;1.67;0.50;;;17.40;99.90;;;;;;5091217;28;20024;-77
2021/11/02 10:16:16;;;;;;;2.60;1.15;;;17.50;99.90;;;;;;5090063;28;20020;-76
2021/11/02 10:19:16;;;;;;;1.60;0.70;;;17.50;99.90;;;;;;5091437;28;20020;-75
2021/11/02 10:21:44;;;;;;;1.80;0.63;;;17.60;99.90;;;;;;5092718;28;20476;-76
2021/11/02 10:24:41;;;;;;;1.33;0.50;;;17.60;99.90;;;;;;5093510;28;20032;-74
2021/11/02 10:27:17;;;;;;;1.73;0.57;;;17.70;99.90;;;;;;5094577;28;20036;-73
2021/11/02 10:30:03;;;;;;;2.70;0.60;;;17.70;99.90;;;;;;5094063;28;20043;-78
2021/11/02 10:32:30;;;;;;;1.55;0.60;;;17.80;99.90;;;;;;5093510;28;20107;-74
2021/11/02 10:35:25;;;;;;;2.13;0.70;;;17.80;99.90;;;;;;5093334;28;20020;-75
2021/11/02 10:37:54;;;;;;;4.00;1.00;;;17.90;99.90;;;;;;5091920;28;20119;-74
2021/11/02 10:40:34;;;;;;;1.17;0.60;;;17.90;99.90;;;;;;5093512;28;20085;-75
2021/11/02 10:43:37;;;;;;;1.55;0.70;;;18.00;99.90;;;;;;5093997;28;20480;-76
2021/11/02 10:46:07;;;;;;;2.40;0.70;;;18.00;99.90;;;;;;5075575;28;20071;-85
2021/11/02 10:49:03;;;;;;;0.80;0.50;;;18.00;99.90;;;;;;5093190;28;20024;-77
2021/11/02 10:51:40;;;;;;;2.85;0.50;;;18.00;99.90;;;;;;5093126;28;20087;-77
2021/11/02 10:54:05;;;;;;;2.72;0.90;;;18.10;99.90;;;;;;5093553;28;20031;-79
2021/11/02 10:56:52;;;;;;;1.65;0.68;;;18.10;99.90;;;;;;5093546;28;20031;-82
2021/11/02 10:59:22;;;;;;;2.05;0.73;;;18.10;99.90;;;;;;5093708;28;20032;-76
2021/11/02 11:01:49;;;;;;;1.55;0.50;;;18.20;99.90;;;;;;5093518;28;20028;-74
2021/11/02 11:04:15;;;;;;;2.97;0.80;;;18.20;99.90;;;;;;5088274;28;20021;-74
2021/11/02 11:06:51;;;;;;;2.90;0.70;;;18.20;99.90;;;;;;5084745;28;20177;-74
2021/11/02 11:09:18;;;;;;;2.88;0.90;;;18.20;99.90;;;;;;5081813;28;20109;-73
2021/11/02 11:11:46;;;;;;;3.30;1.10;;;18.20;99.90;;;;;;5083454;28;20089;-73
2021/11/02 11:14:14;;;;;;;3.25;1.20;;;18.20;99.90;;;;;;5081357;28;20051;-73
2021/11/02 11:16:47;;;;;;;2.50;1.13;;;18.20;99.90;;;;;;5088863;28;20468;-72
2021/11/02 11:19:22;;;;;;;3.13;1.00;;;18.20;99.90;;;;;;5077601;28;20463;-74
2021/11/02 11:21:48;;;;;;;2.53;1.02;;;18.20;99.90;;;;;;5093380;28;20063;-74
2021/11/02 11:24:19;;;;;;;3.60;1.40;;;18.20;99.90;;;;;;5089618;28;20104;-73
2021/11/02 11:26:53;;;;;;;2.15;1.20;;;18.30;99.90;;;;;;5093242;28;20024;-73
2021/11/02 11:29:21;;;;;;;2.47;1.02;;;18.30;99.90;;;;;;5076936;28;20035;-73
2021/11/02 11:31:49;;;;;;;2.47;0.98;;;18.30;99.90;;;;;;5084501;28;20353;-73
2021/11/02 11:34:18;;;;;;;2.88;1.05;;;18.30;99.90;;;;;;5085711;28;20016;-73
2021/11/02 11:36:54;;;;;;;2.42;1.00;;;18.30;99.90;;;;;;5076522;28;20028;-73
2021/11/02 11:39:20;;;;;;;2.85;1.10;;;18.30;99.90;;;;;;5081328;28;20483;-73
2021/11/02 11:41:51;;;;;;;2.42;1.15;;;18.40;99.90;;;;;;5092798;28;20055;-73
2021/11/02 11:44:21;;;;;;;2.95;1.00;;;18.40;99.90;;;;;;5078193;28;20426;-73
2021/11/02 11:47:04;;;;;;;3.85;1.20;;;18.40;99.90;;;;;;5089214;28;20035;-74
2021/11/02 11:49:30;;;;;;;3.88;1.00;;;18.40;99.90;;;;;;5082337;28;20013;-73
2021/11/02 11:51:58;;;;;;;1.77;1.00;;;18.40;99.90;;;;;;5092323;28;20024;-73
2021/11/02 11:54:45;;;;;;;2.80;1.10;;;18.50;99.90;;;;;;5091989;28;20102;-73
2021/11/02 11:57:30;;;;;;;3.95;1.40;;;18.50;99.90;;;;;;5083966;28;20024;-73
2021/11/02 12:00:09;;;;;;;4.53;1.20;;;18.50;99.90;;;;;;5082388;28;20496;-73
2021/11/02 12:02:47;;;;;;;2.33;0.95;;;18.50;99.90;;;;;;5087445;28;20021;-73
2021/11/02 12:05:17;;;;;;;1.98;0.98;;;18.50;99.90;;;;;;5075097;28;20066;-72
2021/11/02 12:08:21;;;;;;;3.58;0.95;;;18.50;99.90;;;;;;5092666;28;20024;-73
2021/11/02 12:10:50;;;;;;;3.63;1.25;;;18.50;99.90;;;;;;5089300;28;20097;-73
2021/11/02 12:13:17;;;;;;;2.95;0.90;;;18.60;99.90;;;;;;5087379;28;20020;-73
2021/11/02 12:16:00;;;;;;;2.83;0.98;;;18.60;99.90;;;;;;5080445;28;20106;-73
2021/11/02 12:18:28;;;;;;;2.42;0.75;;;18.60;99.90;;;;;;5077551;28;20468;-73
2021/11/02 12:20:54;;;;;;;3.08;1.00;;;18.60;99.90;;;;;;5088531;28;20028;-72
2021/11/02 12:23:34;;;;;;;2.85;0.90;;;18.60;99.90;;;;;;5076070;28;20077;-72
2021/11/02 12:26:01;;;;;;;1.70;0.70;;;18.70;99.90;;;;;;5091960;28;20028;-72
2021/11/02 12:28:39;;;;;;;3.40;1.00;;;18.70;99.90;;;;;;5077326;28;20024;-72
2021/11/02 12:31:09;;;;;;;3.78;0.85;;;18.70;99.90;;;;;;5088280;28;20036;-72
2021/11/02 12:33:36;;;;;;;1.88;1.00;;;18.70;99.90;;;;;;5078289;28;20104;-71
2021/11/02 12:36:06;;;;;;;2.92;0.80;;;18.70;99.90;;;;;;5091981;28;20032;-70
2021/11/02 12:38:39;;;;;;;2.35;0.80;;;18.70;99.90;;;;;;5083787;28;20095;-67
2021/11/02 12:41:25;;;;;;;3.42;0.88;;;18.70;99.90;;;;;;5090548;28;20519;-69
2021/11/02 12:44:08;;;;;;;1.77;0.77;;;18.80;99.90;;;;;;5091586;28;20040;-69
2021/11/02 12:46:35;;;;;;;1.52;0.80;;;18.80;99.90;;;;;;5085689;28;20034;-69
2021/11/02 12:49:06;;;;;;;4.82;1.00;;;18.80;99.90;;;;;;5091427;28;20032;-69
2021/11/02 12:51:48;;;;;;;2.22;0.70;;;18.80;99.90;;;;;;5084474;28;20108;-68
2021/11/02 12:54:18;;;;;;;6.03;1.00;;;18.90;99.90;;;;;;5083883;28;20020;-68
2021/11/02 12:56:52;;;;;;;1.75;0.98;;;18.90;99.90;;;;;;5091101;28;20081;-68
2021/11/02 12:59:21;;;;;;;3.03;0.82;;;18.90;99.90;;;;;;5074843;28;20028;-71
2021/11/02 13:01:52;;;;;;;;;;;18.90;99.90;;;;;;5091722;28;20510;-71
2021/11/02 13:04:19;;;;;;;3.63;0.73;;;18.90;99.90;;;;;;5078010;28;20366;-71
2021/11/02 13:06:50;;;;;;;4.03;0.90;;;18.90;99.90;;;;;;5088102;28;20028;-73
2021/11/02 13:09:23;;;;;;;1.83;0.90;;;18.90;99.90;;;;;;5078975;28;20016;-71
2021/11/02 13:12:05;;;;;;;3.85;0.90;;;19.00;99.90;;;;;;5082455;28;20037;-70
2021/11/02 13:14:42;;;;;;;1.70;0.70;;;19.00;99.90;;;;;;5084493;28;20047;-72
2021/11/02 13:17:10;;;;;;;1.23;0.70;;;19.00;99.90;;;;;;5089353;28;20039;-67
2021/11/02 13:19:45;;;;;;;2.15;0.73;;;19.00;99.90;;;;;;5088360;28;20093;-66
2021/11/02 13:22:19;;;;;;;2.95;1.08;;;19.00;99.90;;;;;;5090002;28;20013;-69
2021/11/02 13:25:03;;;;;;;1.48;0.77;;;19.00;99.90;;;;;;5089903;28;20024;-71
2021/11/02 13:27:35;;;;;;;2.25;0.80;;;19.00;99.90;;;;;;5088024;28;20028;-70
2021/11/02 13:30:24;;;;;;;3.72;0.90;;;19.00;99.90;;;;;;5088690;28;20141;-71
2021/11/02 13:33:03;;;;;;;1.38;0.60;;;19.00;99.90;;;;;;5089699;28;20531;-72
2021/11/02 13:35:54;;;;;;;2.55;0.70;;;19.00;99.90;;;;;;5089410;28;20035;-69
2021/11/02 13:38:25;;;;;;;3.40;0.52;;;19.00;99.90;;;;;;5087909;28;20046;-69
2021/11/02 13:40:56;;;;;;;1.83;0.70;;;19.00;99.90;;;;;;5089847;28;20111;-70
2021/11/02 13:43:31;;;;;;;1.20;0.70;;;19.10;99.90;;;;;;5075797;28;20523;-72
2021/11/02 13:45:57;;;;;;;1.88;0.70;;;19.00;99.90;;;;;;5080805;28;20142;-73
2021/11/02 13:48:24;;;;;;;3.25;0.60;;;19.10;99.90;;;;;;5084341;28;20032;-71
2021/11/02 13:50:49;;;;;;;2.85;0.80;;;19.10;99.90;;;;;;5073943;28;20033;-74
2021/11/02 13:53:15;;;;;;;3.97;0.77;;;19.10;99.90;;;;;;5092412;28;20020;-70
2021/11/02 13:55:41;;;;;;;1.30;0.50;;;19.10;99.90;;;;;;5094079;28;20024;-72
2021/11/02 13:58:06;;;;;;;1.92;0.70;;;19.10;99.90;;;;;;5092981;28;20036;-70
2021/11/02 14:00:33;;;;;;;4.75;0.85;;;19.20;99.90;;;;;;5093822;28;20032;-70
2021/11/02 14:03:08;;;;;;;1.90;0.80;;;19.10;99.90;;;;;;5077814;28;20027;-69
2021/11/02 14:05:35;;;;;;;0.77;0.40;;;19.20;99.90;;;;;;5087215;28;20472;-71
2021/11/02 14:08:01;;;;;;;1.58;0.60;;;19.20;99.90;;;;;;5091534;28;20170;-70
2021/11/02 14:10:30;;;;;;;1.75;0.60;;;19.20;99.90;;;;;;5092261;28;20134;-71
2021/11/02 14:12:56;;;;;;;1.67;0.57;;;19.20;99.90;;;;;;5090835;28;20584;-71
2021/11/02 14:15:32;;;;;;;1.95;0.70;;;19.20;99.90;;;;;;5078774;28;20025;-71
2021/11/02 14:17:57;;;;;;;1.70;0.60;;;19.30;99.90;;;;;;5083645;28;20048;-71
2021/11/02 14:20:49;;;;;;;2.92;0.68;;;19.30;99.90;;;;;;5086891;28;20427;-71
2021/11/02 14:23:30;;;;;;;1.27;0.60;;;19.30;99.90;;;;;;5078721;28;20031;-71
2021/11/02 14:26:14;;;;;;;2.78;0.80;;;19.30;99.90;;;;;;5084011;28;20039;-71
2021/11/02 14:28:46;;;;;;;1.30;0.55;;;19.30;99.90;;;;;;5092346;28;20099;-70
2021/11/02 14:31:34;;;;;;;1.77;0.73;;;19.40;99.90;;;;;;5089808;28;20497;-72
2021/11/02 14:34:00;;;;;;;1.42;0.50;;;19.40;99.90;;;;;;5087111;28;20029;-70
2021/11/02 14:36:40;;;;;;;2.53;0.68;;;19.40;99.90;;;;;;5091549;28;20108;-71
2021/11/02 14:39:08;;;;;;;2.28;0.50;;;19.40;99.90;;;;;;5091891;28;20085;-71
2021/11/02 14:41:36;;;;;;;2.28;0.65;;;19.40;99.90;;;;;;5092739;28;20388;-71
2021/11/02 14:44:13;;;;;;;1.58;0.70;;;19.40;99.90;;;;;;5092152;28;20053;-72
2021/11/02 14:46:53;;;;;;;3.30;0.75;;;19.40;99.90;;;;;;5092093;28;20547;-70
2021/11/02 14:49:28;;;;;;;2.17;0.57;;;19.40;99.90;;;;;;5091844;28;20108;-71
2021/11/02 14:51:59;;;;;;;1.90;0.70;;;19.40;99.90;;;;;;5092526;28;20123;-71
2021/11/02 14:54:29;;;;;;;1.75;0.60;;;19.40;99.90;;;;;;5089661;28;20073;-70
2021/11/02 14:57:16;;;;;;;2.15;0.70;;;19.40;99.90;;;;;;5092394;28;20059;-72
2021/11/02 14:59:57;;;;;;;2.00;0.57;;;19.40;99.90;;;;;;5077971;28;20127;-71
2021/11/02 15:02:40;;;;;;;2.58;0.63;;;19.50;99.90;;;;;;5089764;28;20024;-72
2021/11/02 15:05:10;;;;;;;2.05;0.40;;;19.50;99.90;;;;;;5091010;28;20858;-70
2021/11/02 15:07:44;;;;;;;1.98;0.63;;;19.50;99.90;;;;;;5091844;28;20646;-71
2021/11/02 15:10:15;;;;;;;1.60;0.60;;;19.50;99.90;;;;;;5091652;28;20047;-72
2021/11/02 15:12:49;;;;;;;1.83;0.70;;;19.50;99.90;;;;;;5093653;28;20020;-71
2021/11/02 15:15:14;;;;;;;;;;;19.50;99.90;;;;;;5078083;28;20024;-70
2021/11/02 15:17:41;;;;;;;1.88;0.70;;;19.60;99.90;;;;;;5092425;28;19937;-69
2021/11/02 15:20:07;;;;;;;1.33;0.60;;;19.50;99.90;;;;;;5091786;28;20525;-70
2021/11/02 15:22:33;;;;;;;1.15;0.50;;;19.60;99.90;;;;;;5091618;28;20085;-70
2021/11/02 15:25:01;;;;;;;2.20;0.70;;;19.50;99.90;;;;;;5091521;28;20035;-71
2021/11/02 15:27:36;;;;;;;1.15;0.60;;;19.60;99.90;;;;;;5091720;28;20052;-71
2021/11/02 15:30:12;;;;;;;2.28;0.60;;;19.60;99.90;;;;;;5090207;28;20024;-69
2021/11/02 15:32:43;;;;;;;1.35;0.55;;;19.50;99.90;;;;;;5076663;28;20042;-69
2021/11/02 15:35:11;;;;;;;1.17;0.45;;;19.50;99.90;;;;;;5082545;28;20024;-69
2021/11/02 15:37:46;;;;;;;0.95;0.38;;;19.60;99.90;;;;;;5092614;28;20031;-69
2021/11/02 15:40:21;;;;;;;2.97;0.50;;;19.60;99.90;;;;;;5092747;28;20024;-69
2021/11/02 15:42:52;;;;;;;1.55;0.60;;;19.60;99.90;;;;;;5092799;28;20077;-70
2021/11/02 15:45:18;;;;;;;1.50;0.50;;;19.50;99.90;;;;;;5087560;28;20476;-71
2021/11/02 15:47:51;;;;;;;2.40;0.82;;;19.50;99.90;;;;;;5082974;28;20028;-72
2021/11/02 15:50:25;;;;;;;1.17;0.50;;;19.60;99.90;;;;;;5091134;28;20032;-70
2021/11/02 15:52:56;;;;;;;1.73;0.55;;;19.50;99.90;;;;;;5090770;28;20032;-71
2021/11/02 15:55:23;;;;;;;1.27;0.50;;;19.60;99.90;;;;;;5087778;28;20047;-71
2021/11/02 15:57:54;;;;;;;2.50;0.70;;;19.50;99.90;;;;;;5088383;28;20024;-70
2021/11/02 16:00:29;;;;;;;1.20;0.50;;;19.50;99.90;;;;;;5089769;28;20666;-69
2021/11/02 16:02:55;;;;;;;1.25;0.68;;;19.60;99.90;;;;;;5092033;28;20031;-71
2021/11/02 16:05:24;;;;;;;1.67;0.50;;;19.50;99.90;;;;;;5091618;28;20016;-71
2021/11/02 16:07:54;;;;;;;1.50;0.47;;;19.50;99.90;;;;;;5091703;28;20047;-70
2021/11/02 16:10:25;;;;;;;1.60;0.50;;;19.50;99.90;;;;;;5090295;28;20561;-70
2021/11/02 16:12:51;;;;;;;1.23;0.45;;;19.50;99.90;;;;;;5091787;28;20028;-71
2021/11/02 16:15:38;;;;;;;1.67;0.60;;;19.50;99.90;;;;;;5087283;28;20476;-70
2021/11/02 16:18:15;;;;;;;1.75;0.60;;;19.50;99.90;;;;;;5080393;28;20082;-71
2021/11/02 16:20:42;;;;;;;2.20;0.40;;;19.50;99.90;;;;;;5088022;28;20467;-72
2021/11/02 16:23:11;;;;;;;1.80;0.50;;;19.50;99.90;;;;;;5091306;28;20109;-72
2021/11/02 16:26:10;;;;;;;2.95;0.63;;;19.50;99.90;;;;;;5091498;28;20103;-70
2021/11/02 16:28:36;;;;;;;3.63;0.57;;;19.40;99.90;;;;;;5091003;28;20031;-71
2021/11/02 16:31:06;;;;;;;1.33;0.50;;;19.40;99.90;;;;;;5089941;28;20031;-70
2021/11/02 16:33:33;;;;;;;1.85;0.52;;;19.40;99.90;;;;;;5091413;28;20027;-71
2021/11/02 16:36:23;;;;;;;1.73;0.60;;;19.40;99.90;;;;;;5090864;28;20024;-71
2021/11/02 16:38:52;;;;;;;1.65;0.50;;;19.40;99.90;;;;;;5088609;28;20019;-71
2021/11/02 16:41:25;;;;;;;1.40;0.68;;;19.40;99.90;;;;;;5090661;28;20028;-71
2021/11/02 16:43:55;;;;;;;1.13;0.60;;;19.40;99.90;;;;;;5091661;28;20024;-70
2021/11/02 16:46:40;;;;;;;1.27;0.40;;;19.40;99.90;;;;;;5077883;28;20101;-71
2021/11/02 16:49:11;;;;;;;1.65;0.57;;;19.40;99.90;;;;;;5090296;28;20024;-71
2021/11/02 16:51:55;;;;;;;1.90;0.73;;;19.30;99.90;;;;;;5089250;28;20042;-71
2021/11/02 16:54:23;;;;;;;2.05;0.50;;;19.30;99.90;;;;;;5090660;28;20028;-70
2021/11/02 16:57:08;;;;;;;1.30;0.60;;;19.30;99.90;;;;;;5090873;28;20035;-71
2021/11/02 16:59:40;;;;;;;1.15;0.50;;;19.30;99.90;;;;;;5089726;28;20031;-71
2021/11/02 17:02:15;;;;;;;0.82;0.43;;;19.30;99.90;;;;;;5091173;28;20039;-71
2021/11/02 17:05:00;;;;;;;0.80;0.38;;;19.20;99.90;;;;;;5090408;28;20408;-71
2021/11/02 17:07:45;;;;;;;0.95;0.45;;;19.20;99.90;;;;;;5076474;28;20081;-71
2021/11/02 17:10:28;;;;;;;;;;;19.20;99.90;;;;;;5091225;28;20021;-71
2021/11/02 17:13:07;;;;;;;2.28;0.70;;;19.20;99.90;;;;;;5089064;28;19904;-70
2021/11/02 17:16:01;;;;;;;2.35;0.75;;;19.20;99.90;;;;;;5087614;28;20112;-70
2021/11/02 17:18:27;;;;;;;;;;;19.10;99.90;;;;;;5089377;28;20027;-70
2021/11/02 17:21:04;;;;;;;1.67;0.50;;;19.10;99.90;;;;;;5089361;28;20264;-70
2021/11/02 17:23:30;;;;;;;0.63;0.50;;;19.10;99.90;;;;;;5076821;28;20024;-70
2021/11/02 17:25:56;;;;;;;2.13;0.70;;;19.10;99.90;;;;;;5089985;28;20025;-70
2021/11/02 17:28:22;;;;;;;1.15;0.50;;;19.10;99.90;;;;;;5092115;28;20024;-70
2021/11/02 17:30:48;;;;;;;1.52;0.57;;;19.00;99.90;;;;;;5092887;28;20044;-70
2021/11/02 17:33:16;;;;;;;0.98;0.50;;;19.00;99.90;;;;;;5093993;28;20487;-70
2021/11/02 17:35:43;;;;;;;1.10;0.50;;;19.00;99.90;;;;;;5095214;28;20027;-69
2021/11/02 17:38:09;;;;;;;1.35;0.60;;;19.00;99.90;;;;;;5092805;28;20032;-70
2021/11/02 17:40:36;;;;;;;3.55;0.70;;;19.00;99.90;;;;;;5093390;28;20444;-69
2021/11/02 17:43:02;;;;;;;1.45;0.60;;;19.00;99.90;;;;;;5094748;28;20020;-70
2021/11/02 17:45:29;;;;;;;1.92;0.60;;;19.00;99.90;;;;;;5092183;28;20597;-70
2021/11/02 17:47:57;;;;;;;3.03;0.70;;;19.00;99.90;;;;;;5092780;28;20024;-70
2021/11/02 17:50:27;;;;;;;1.38;0.70;;;18.90;99.90;;;;;;5090341;28;20536;-70
2021/11/02 17:52:54;;;;;;;0.77;0.45;;;18.90;99.90;;;;;;5092586;28;20024;-70
2021/11/02 17:55:20;;;;;;;1.02;0.60;;;18.90;99.90;;;;;;5093146;28;20126;-70
2021/11/02 17:57:51;;;;;;;2.22;0.60;;;18.90;99.90;;;;;;5086033;28;20039;-70
2021/11/02 18:00:22;;;;;;;1.45;0.70;;;18.90;99.90;;;;;;5093911;28;20058;-70
2021/11/02 18:02:51;;;;;;;1.48;0.68;;;18.90;99.90;;;;;;5094005;28;20064;-70
2021/11/02 18:05:17;;;;;;;1.85;0.68;;;18.90;99.90;;;;;;5079127;28;20055;-70
2021/11/02 18:07:43;;;;;;;1.50;0.68;;;18.90;99.90;;;;;;5086834;28;20079;-70
2021/11/02 18:10:10;;;;;;;1.60;0.70;;;18.90;99.90;;;;;;5085827;28;20024;-70
2021/11/02 18:12:37;;;;;;;2.25;0.70;;;18.80;99.90;;;;;;5090243;28;20047;-69
2021/11/02 18:15:05;;;;;;;3.38;0.98;;;18.80;99.90;;;;;;5093083;28;20028;-70